sensor_id;sensor_type;location;lat;lon;timestamp;pressure;altitude;pressure_sealevel;temperature;humidity
24858;BME280;12935;50.782;6.074;2023-02-10T00:02:20;101422.94;;;3.47;100.00
24858;BME280;12935;50.782;6.074;2023-02-10T00:04:45;101423.88;;;3.56;100.00
24858;BME280;12935;50.782;6.074;2023-02-10T00:07:11;101417.59;;;3.74;100.00
24858;BME280;12935;50.782;6.074;2023-02-10T00:09:36;101416.47;;;3.89;100.00
24858;BME280;12935;50.782;6.074;2023-02-10T00:12:01;101415.84;;;3.78;100.00
24858;BME280;12935;50.782;6.074;2023-02-10T00:14:28;101414.38;;;3.59;100.00
24858;BME280;12935;50.782;6.074;2023-02-10T00:16:55;101419.69;;;3.77;100.00
24858;BME280;12935;50.782;6.074;2023-02-10T00:19:22;101409.03;;;3.95;100.00
24858;BME280;12935;50.782;6.074;2023-02-10T00:21:48;101408.44;;;3.98;100.00
24858;BME280;12935;50.782;6.074;2023-02-10T00:24:14;101427.09;;;3.85;100.00
24858;BME280;12935;50.782;6.074;2023-02-10T00:26:39;101428.78;;;3.81;100.00
24858;BME280;12935;50.782;6.074;2023-02-10T00:29:04;101420.00;;;3.76;100.00
24858;BME280;12935;50.782;6.074;2023-02-10T00:31:30;101423.00;;;3.74;100.00
24858;BME280;12935;50.782;6.074;2023-02-10T00:33:55;101411.97;;;3.84;100.00
24858;BME280;12935;50.782;6.074;2023-02-10T00:36:21;101418.56;;;3.78;100.00
24858;BME280;12935;50.782;6.074;2023-02-10T00:38:47;101414.88;;;3.88;100.00
24858;BME280;12935;50.782;6.074;2023-02-10T00:41:18;101422.88;;;4.07;100.00
24858;BME280;12935;50.782;6.074;2023-02-10T00:43:44;101419.66;;;4.18;100.00
24858;BME280;12935;50.782;6.074;2023-02-10T00:46:11;101423.03;;;4.10;100.00
24858;BME280;12935;50.782;6.074;2023-02-10T00:48:36;101419.69;;;3.91;100.00
24858;BME280;12935;50.782;6.074;2023-02-10T00:51:03;101429.19;;;4.02;100.00
24858;BME280;12935;50.782;6.074;2023-02-10T00:53:29;101422.09;;;3.93;100.00
24858;BME280;12935;50.782;6.074;2023-02-10T00:55:54;101429.59;;;3.82;100.00
24858;BME280;12935;50.782;6.074;2023-02-10T00:58:20;101435.88;;;3.64;100.00
24858;BME280;12935;50.782;6.074;2023-02-10T01:00:46;101429.47;;;3.46;100.00
24858;BME280;12935;50.782;6.074;2023-02-10T01:03:11;101436.06;;;3.40;100.00
24858;BME280;12935;50.782;6.074;2023-02-10T01:05:37;101438.25;;;3.38;100.00
24858;BME280;12935;50.782;6.074;2023-02-10T01:08:02;101435.47;;;3.29;100.00
24858;BME280;12935;50.782;6.074;2023-02-10T01:10:28;101434.75;;;3.37;100.00
24858;BME280;12935;50.782;6.074;2023-02-10T01:12:53;101434.78;;;3.51;100.00
24858;BME280;12935;50.782;6.074;2023-02-10T01:15:19;101437.09;;;3.44;100.00
24858;BME280;12935;50.782;6.074;2023-02-10T01:17:45;101431.38;;;3.45;100.00
24858;BME280;12935;50.782;6.074;2023-02-10T01:20:10;101432.28;;;3.68;100.00
24858;BME280;12935;50.782;6.074;2023-02-10T01:22:36;101433.81;;;3.88;100.00
24858;BME280;12935;50.782;6.074;2023-02-10T01:25:02;101441.72;;;3.84;100.00
24858;BME280;12935;50.782;6.074;2023-02-10T01:27:27;101434.91;;;3.87;100.00
24858;BME280;12935;50.782;6.074;2023-02-10T01:29:52;101436.59;;;3.83;100.00
24858;BME280;12935;50.782;6.074;2023-02-10T01:32:17;101441.69;;;3.98;100.00
24858;BME280;12935;50.782;6.074;2023-02-10T01:34:43;101432.75;;;4.11;100.00
24858;BME280;12935;50.782;6.074;2023-02-10T01:37:08;101439.41;;;4.05;100.00
24858;BME280;12935;50.782;6.074;2023-02-10T01:39:34;101431.78;;;4.07;100.00
24858;BME280;12935;50.782;6.074;2023-02-10T01:42:01;101439.38;;;4.19;100.00
24858;BME280;12935;50.782;6.074;2023-02-10T01:46:52;101442.09;;;4.05;100.00
24858;BME280;12935;50.782;6.074;2023-02-10T01:49:19;101450.72;;;3.94;100.00
24858;BME280;12935;50.782;6.074;2023-02-10T01:51:52;101450.22;;;4.05;100.00
24858;BME280;12935;50.782;6.074;2023-02-10T01:54:25;101450.81;;;4.16;100.00
24858;BME280;12935;50.782;6.074;2023-02-10T01:56:53;101449.69;;;4.17;100.00
24858;BME280;12935;50.782;6.074;2023-02-10T01:59:19;101447.81;;;4.17;100.00
24858;BME280;12935;50.782;6.074;2023-02-10T02:01:46;101452.63;;;4.20;100.00
24858;BME280;12935;50.782;6.074;2023-02-10T02:04:12;101454.84;;;4.05;100.00
24858;BME280;12935;50.782;6.074;2023-02-10T02:06:38;101458.63;;;4.04;100.00
24858;BME280;12935;50.782;6.074;2023-02-10T02:09:04;101460.53;;;4.17;100.00
24858;BME280;12935;50.782;6.074;2023-02-10T02:11:50;101462.66;;;3.93;100.00
24858;BME280;12935;50.782;6.074;2023-02-10T02:14:29;101464.53;;;3.65;100.00
24858;BME280;12935;50.782;6.074;2023-02-10T02:17:02;101468.94;;;3.61;100.00
24858;BME280;12935;50.782;6.074;2023-02-10T02:23:12;101475.81;;;3.39;100.00
24858;BME280;12935;50.782;6.074;2023-02-10T02:34:32;101472.03;;;3.68;100.00
24858;BME280;12935;50.782;6.074;2023-02-10T02:37:03;101475.63;;;3.63;100.00
24858;BME280;12935;50.782;6.074;2023-02-10T02:39:31;101481.13;;;3.44;100.00
24858;BME280;12935;50.782;6.074;2023-02-10T02:44:48;101478.56;;;3.34;100.00
24858;BME280;12935;50.782;6.074;2023-02-10T02:53:03;101475.72;;;3.12;100.00
24858;BME280;12935;50.782;6.074;2023-02-10T02:58:15;101485.63;;;3.16;100.00
24858;BME280;12935;50.782;6.074;2023-02-10T03:00:43;101477.41;;;3.08;100.00
24858;BME280;12935;50.782;6.074;2023-02-10T03:03:10;101484.94;;;3.11;100.00
24858;BME280;12935;50.782;6.074;2023-02-10T03:05:35;101493.59;;;3.27;100.00
24858;BME280;12935;50.782;6.074;2023-02-10T03:08:01;101488.53;;;3.20;100.00
24858;BME280;12935;50.782;6.074;2023-02-10T03:10:27;101500.88;;;3.26;100.00
24858;BME280;12935;50.782;6.074;2023-02-10T03:12:52;101489.28;;;3.26;100.00
24858;BME280;12935;50.782;6.074;2023-02-10T03:15:17;101494.00;;;3.34;100.00
24858;BME280;12935;50.782;6.074;2023-02-10T03:17:43;101486.31;;;3.41;100.00
24858;BME280;12935;50.782;6.074;2023-02-10T03:20:08;101494.50;;;3.36;100.00
24858;BME280;12935;50.782;6.074;2023-02-10T03:22:34;101488.47;;;3.25;100.00
24858;BME280;12935;50.782;6.074;2023-02-10T03:24:59;101490.69;;;3.37;100.00
24858;BME280;12935;50.782;6.074;2023-02-10T03:27:25;101493.69;;;3.35;100.00
24858;BME280;12935;50.782;6.074;2023-02-10T03:29:50;101479.13;;;3.50;100.00
24858;BME280;12935;50.782;6.074;2023-02-10T03:32:17;101478.25;;;3.68;100.00
24858;BME280;12935;50.782;6.074;2023-02-10T03:34:42;101482.06;;;3.67;100.00
24858;BME280;12935;50.782;6.074;2023-02-10T03:37:08;101477.06;;;3.74;100.00
24858;BME280;12935;50.782;6.074;2023-02-10T03:39:33;101481.75;;;3.82;100.00
24858;BME280;12935;50.782;6.074;2023-02-10T03:41:58;101469.56;;;3.85;100.00
24858;BME280;12935;50.782;6.074;2023-02-10T03:44:24;101470.25;;;3.77;100.00
24858;BME280;12935;50.782;6.074;2023-02-10T03:46:49;101465.75;;;3.72;100.00
24858;BME280;12935;50.782;6.074;2023-02-10T03:49:14;101463.53;;;3.74;100.00
24858;BME280;12935;50.782;6.074;2023-02-10T03:51:39;101448.50;;;3.68;100.00
24858;BME280;12935;50.782;6.074;2023-02-10T03:54:05;101444.19;;;3.67;100.00
24858;BME280;12935;50.782;6.074;2023-02-10T03:56:30;101428.19;;;3.71;100.00
24858;BME280;12935;50.782;6.074;2023-02-10T03:58:55;101421.97;;;3.70;100.00
24858;BME280;12935;50.782;6.074;2023-02-10T04:01:21;101416.97;;;3.64;100.00
24858;BME280;12935;50.782;6.074;2023-02-10T04:03:46;101426.97;;;3.49;100.00
24858;BME280;12935;50.782;6.074;2023-02-10T04:06:12;101428.06;;;3.48;100.00
24858;BME280;12935;50.782;6.074;2023-02-10T04:08:38;101432.28;;;3.55;100.00
24858;BME280;12935;50.782;6.074;2023-02-10T04:11:04;101441.19;;;3.41;100.00
24858;BME280;12935;50.782;6.074;2023-02-10T04:13:30;101455.81;;;3.08;100.00
24858;BME280;12935;50.782;6.074;2023-02-10T04:16:15;101460.63;;;3.11;100.00
24858;BME280;12935;50.782;6.074;2023-02-10T04:18:42;101464.31;;;3.15;100.00
24858;BME280;12935;50.782;6.074;2023-02-10T04:21:09;101468.28;;;3.04;100.00
24858;BME280;12935;50.782;6.074;2023-02-10T04:23:35;101467.22;;;2.86;100.00
24858;BME280;12935;50.782;6.074;2023-02-10T04:26:01;101470.34;;;2.74;100.00
24858;BME280;12935;50.782;6.074;2023-02-10T04:28:27;101475.97;;;2.78;100.00
24858;BME280;12935;50.782;6.074;2023-02-10T04:30:53;101476.91;;;2.87;100.00
24858;BME280;12935;50.782;6.074;2023-02-10T04:33:19;101481.72;;;2.90;100.00
24858;BME280;12935;50.782;6.074;2023-02-10T04:35:47;101476.38;;;3.04;100.00
24858;BME280;12935;50.782;6.074;2023-02-10T04:38:13;101485.72;;;3.11;100.00
24858;BME280;12935;50.782;6.074;2023-02-10T04:40:39;101477.75;;;3.20;100.00
24858;BME280;12935;50.782;6.074;2023-02-10T04:43:04;101483.06;;;3.25;100.00
24858;BME280;12935;50.782;6.074;2023-02-10T04:45:30;101496.94;;;3.18;100.00
24858;BME280;12935;50.782;6.074;2023-02-10T04:47:55;101486.69;;;3.02;100.00
24858;BME280;12935;50.782;6.074;2023-02-10T04:50:20;101488.63;;;3.15;100.00
24858;BME280;12935;50.782;6.074;2023-02-10T04:52:45;101486.88;;;3.24;100.00
24858;BME280;12935;50.782;6.074;2023-02-10T04:55:11;101484.13;;;3.10;100.00
24858;BME280;12935;50.782;6.074;2023-02-10T04:57:36;101487.88;;;2.96;100.00
24858;BME280;12935;50.782;6.074;2023-02-10T05:00:03;101488.16;;;2.94;100.00
24858;BME280;12935;50.782;6.074;2023-02-10T05:02:28;101500.47;;;3.00;100.00
24858;BME280;12935;50.782;6.074;2023-02-10T05:04:53;101502.97;;;2.97;100.00
24858;BME280;12935;50.782;6.074;2023-02-10T05:07:18;101504.59;;;2.79;100.00
24858;BME280;12935;50.782;6.074;2023-02-10T05:09:44;101496.84;;;2.72;100.00
24858;BME280;12935;50.782;6.074;2023-02-10T05:12:09;101500.63;;;2.71;100.00
24858;BME280;12935;50.782;6.074;2023-02-10T05:14:34;101496.91;;;2.86;100.00
24858;BME280;12935;50.782;6.074;2023-02-10T05:16:59;101490.63;;;2.91;100.00
24858;BME280;12935;50.782;6.074;2023-02-10T05:19:25;101494.41;;;3.08;100.00
24858;BME280;12935;50.782;6.074;2023-02-10T05:21:50;101488.66;;;2.96;100.00
24858;BME280;12935;50.782;6.074;2023-02-10T05:24:15;101498.78;;;3.04;100.00
24858;BME280;12935;50.782;6.074;2023-02-10T05:26:41;101499.75;;;3.13;100.00
24858;BME280;12935;50.782;6.074;2023-02-10T05:29:06;101501.34;;;3.14;100.00
24858;BME280;12935;50.782;6.074;2023-02-10T05:31:31;101506.75;;;3.14;100.00
24858;BME280;12935;50.782;6.074;2023-02-10T05:33:58;101498.72;;;2.91;100.00
24858;BME280;12935;50.782;6.074;2023-02-10T05:36:23;101505.88;;;3.00;100.00
24858;BME280;12935;50.782;6.074;2023-02-10T05:38:48;101498.28;;;3.02;100.00
24858;BME280;12935;50.782;6.074;2023-02-10T05:41:32;101502.81;;;3.07;100.00
24858;BME280;12935;50.782;6.074;2023-02-10T05:43:57;101502.63;;;3.17;100.00
24858;BME280;12935;50.782;6.074;2023-02-10T05:46:23;101501.81;;;3.35;100.00
24858;BME280;12935;50.782;6.074;2023-02-10T05:48:48;101497.84;;;3.14;100.00
24858;BME280;12935;50.782;6.074;2023-02-10T05:51:13;101504.34;;;3.13;100.00
24858;BME280;12935;50.782;6.074;2023-02-10T05:53:39;101501.19;;;3.06;100.00
24858;BME280;12935;50.782;6.074;2023-02-10T05:56:04;101504.25;;;2.99;100.00
24858;BME280;12935;50.782;6.074;2023-02-10T05:58:29;101510.78;;;2.79;100.00
24858;BME280;12935;50.782;6.074;2023-02-10T06:00:57;101498.81;;;2.67;100.00
24858;BME280;12935;50.782;6.074;2023-02-10T06:03:23;101501.59;;;2.62;100.00
24858;BME280;12935;50.782;6.074;2023-02-10T06:05:48;101497.41;;;2.69;100.00
24858;BME280;12935;50.782;6.074;2023-02-10T06:08:13;101492.91;;;2.65;100.00
24858;BME280;12935;50.782;6.074;2023-02-10T06:10:39;101491.88;;;2.79;100.00
24858;BME280;12935;50.782;6.074;2023-02-10T06:13:04;101497.94;;;2.71;100.00
24858;BME280;12935;50.782;6.074;2023-02-10T06:15:29;101498.38;;;2.78;100.00
24858;BME280;12935;50.782;6.074;2023-02-10T06:17:55;101496.91;;;2.86;100.00
24858;BME280;12935;50.782;6.074;2023-02-10T06:20:20;101500.78;;;2.99;100.00
24858;BME280;12935;50.782;6.074;2023-02-10T06:22:45;101509.00;;;3.07;100.00
24858;BME280;12935;50.782;6.074;2023-02-10T06:25:10;101513.50;;;2.98;100.00
24858;BME280;12935;50.782;6.074;2023-02-10T06:27:36;101522.69;;;2.78;100.00
24858;BME280;12935;50.782;6.074;2023-02-10T06:30:01;101531.00;;;2.82;100.00
24858;BME280;12935;50.782;6.074;2023-02-10T06:32:26;101526.00;;;2.70;100.00
24858;BME280;12935;50.782;6.074;2023-02-10T06:34:51;101533.16;;;2.61;100.00
24858;BME280;12935;50.782;6.074;2023-02-10T06:37:17;101531.13;;;2.72;100.00
24858;BME280;12935;50.782;6.074;2023-02-10T06:39:42;101528.88;;;2.60;100.00
24858;BME280;12935;50.782;6.074;2023-02-10T06:42:07;101519.88;;;2.46;100.00
24858;BME280;12935;50.782;6.074;2023-02-10T06:44:32;101524.53;;;2.40;100.00
24858;BME280;12935;50.782;6.074;2023-02-10T06:46:58;101527.03;;;2.56;100.00
24858;BME280;12935;50.782;6.074;2023-02-10T06:49:23;101519.97;;;2.60;100.00
24858;BME280;12935;50.782;6.074;2023-02-10T06:51:48;101525.00;;;2.66;100.00
24858;BME280;12935;50.782;6.074;2023-02-10T06:54:14;101528.91;;;2.55;100.00
24858;BME280;12935;50.782;6.074;2023-02-10T06:56:39;101530.19;;;2.63;100.00
24858;BME280;12935;50.782;6.074;2023-02-10T06:59:05;101528.34;;;2.58;100.00
24858;BME280;12935;50.782;6.074;2023-02-10T07:01:30;101537.41;;;2.67;100.00
24858;BME280;12935;50.782;6.074;2023-02-10T07:03:55;101547.41;;;2.67;100.00
24858;BME280;12935;50.782;6.074;2023-02-10T07:06:21;101548.34;;;2.76;100.00
24858;BME280;12935;50.782;6.074;2023-02-10T07:08:46;101551.13;;;2.71;100.00
24858;BME280;12935;50.782;6.074;2023-02-10T07:11:12;101554.84;;;2.75;100.00
24858;BME280;12935;50.782;6.074;2023-02-10T07:13:37;101540.31;;;2.71;100.00
24858;BME280;12935;50.782;6.074;2023-02-10T07:16:02;101550.47;;;2.79;100.00
24858;BME280;12935;50.782;6.074;2023-02-10T07:18:28;101548.50;;;2.85;100.00
24858;BME280;12935;50.782;6.074;2023-02-10T07:20:55;101554.41;;;3.05;100.00
24858;BME280;12935;50.782;6.074;2023-02-10T07:23:20;101550.91;;;3.05;100.00
24858;BME280;12935;50.782;6.074;2023-02-10T07:25:45;101550.91;;;3.05;100.00
24858;BME280;12935;50.782;6.074;2023-02-10T07:28:11;101552.28;;;3.21;100.00
24858;BME280;12935;50.782;6.074;2023-02-10T07:30:36;101553.38;;;3.39;100.00
24858;BME280;12935;50.782;6.074;2023-02-10T07:33:01;101553.44;;;3.34;100.00
24858;BME280;12935;50.782;6.074;2023-02-10T07:35:27;101546.34;;;3.38;100.00
24858;BME280;12935;50.782;6.074;2023-02-10T07:37:53;101534.81;;;3.32;100.00
24858;BME280;12935;50.782;6.074;2023-02-10T07:40:18;101540.22;;;3.32;100.00
24858;BME280;12935;50.782;6.074;2023-02-10T07:42:44;101533.09;;;3.23;100.00
24858;BME280;12935;50.782;6.074;2023-02-10T07:45:09;101543.28;;;3.44;100.00
24858;BME280;12935;50.782;6.074;2023-02-10T07:47:34;101542.81;;;3.56;100.00
24858;BME280;12935;50.782;6.074;2023-02-10T07:49:59;101547.72;;;3.54;100.00
24858;BME280;12935;50.782;6.074;2023-02-10T07:52:25;101553.06;;;3.73;100.00
24858;BME280;12935;50.782;6.074;2023-02-10T07:54:50;101553.88;;;3.87;100.00
24858;BME280;12935;50.782;6.074;2023-02-10T07:57:16;101562.09;;;3.96;100.00
24858;BME280;12935;50.782;6.074;2023-02-10T07:59:42;101559.00;;;3.88;100.00
24858;BME280;12935;50.782;6.074;2023-02-10T08:02:09;101557.84;;;4.08;100.00
24858;BME280;12935;50.782;6.074;2023-02-10T08:04:34;101552.81;;;4.15;100.00
24858;BME280;12935;50.782;6.074;2023-02-10T08:07:00;101558.53;;;4.14;100.00
24858;BME280;12935;50.782;6.074;2023-02-10T08:09:25;101558.53;;;4.28;100.00
24858;BME280;12935;50.782;6.074;2023-02-10T08:11:51;101553.53;;;4.21;100.00
24858;BME280;12935;50.782;6.074;2023-02-10T08:14:16;101545.19;;;4.31;100.00
24858;BME280;12935;50.782;6.074;2023-02-10T08:16:41;101554.72;;;4.29;100.00
24858;BME280;12935;50.782;6.074;2023-02-10T08:19:06;101550.00;;;4.34;100.00
24858;BME280;12935;50.782;6.074;2023-02-10T08:21:32;101556.22;;;4.07;100.00
24858;BME280;12935;50.782;6.074;2023-02-10T08:23:57;101554.34;;;4.21;100.00
24858;BME280;12935;50.782;6.074;2023-02-10T08:26:22;101552.50;;;4.31;100.00
24858;BME280;12935;50.782;6.074;2023-02-10T08:28:48;101560.84;;;4.34;100.00
24858;BME280;12935;50.782;6.074;2023-02-10T08:31:13;101556.72;;;4.50;100.00
24858;BME280;12935;50.782;6.074;2023-02-10T08:33:39;101568.53;;;4.27;100.00
24858;BME280;12935;50.782;6.074;2023-02-10T08:36:07;101572.25;;;4.45;100.00
24858;BME280;12935;50.782;6.074;2023-02-10T08:38:33;101583.88;;;4.18;100.00
24858;BME280;12935;50.782;6.074;2023-02-10T08:40:59;101580.81;;;4.25;100.00
24858;BME280;12935;50.782;6.074;2023-02-10T08:43:25;101573.75;;;4.10;100.00
24858;BME280;12935;50.782;6.074;2023-02-10T08:45:50;101569.75;;;4.07;100.00
24858;BME280;12935;50.782;6.074;2023-02-10T08:48:16;101566.94;;;4.12;100.00
24858;BME280;12935;50.782;6.074;2023-02-10T08:50:42;101567.06;;;4.35;100.00
24858;BME280;12935;50.782;6.074;2023-02-10T08:53:07;101560.44;;;4.27;100.00
24858;BME280;12935;50.782;6.074;2023-02-10T08:55:33;101560.41;;;4.41;100.00
24858;BME280;12935;50.782;6.074;2023-02-10T08:57:58;101558.13;;;4.48;100.00
24858;BME280;12935;50.782;6.074;2023-02-10T09:00:23;101545.81;;;4.55;100.00
24858;BME280;12935;50.782;6.074;2023-02-10T09:02:49;101546.97;;;4.63;100.00
24858;BME280;12935;50.782;6.074;2023-02-10T09:05:15;101546.69;;;4.51;100.00
24858;BME280;12935;50.782;6.074;2023-02-10T09:07:41;101559.00;;;4.57;100.00
24858;BME280;12935;50.782;6.074;2023-02-10T09:10:06;101564.94;;;4.45;100.00
24858;BME280;12935;50.782;6.074;2023-02-10T09:12:35;101554.25;;;4.40;100.00
24858;BME280;12935;50.782;6.074;2023-02-10T09:15:00;101549.78;;;4.58;100.00
24858;BME280;12935;50.782;6.074;2023-02-10T09:17:26;101562.19;;;4.73;100.00
24858;BME280;12935;50.782;6.074;2023-02-10T09:19:51;101560.38;;;4.82;100.00
24858;BME280;12935;50.782;6.074;2023-02-10T09:22:16;101562.31;;;5.04;100.00
24858;BME280;12935;50.782;6.074;2023-02-10T09:24:42;101573.44;;;5.16;100.00
24858;BME280;12935;50.782;6.074;2023-02-10T09:27:11;101566.34;;;5.06;100.00
24858;BME280;12935;50.782;6.074;2023-02-10T09:29:37;101573.94;;;4.82;100.00
24858;BME280;12935;50.782;6.074;2023-02-10T09:32:02;101571.44;;;4.85;100.00
24858;BME280;12935;50.782;6.074;2023-02-10T09:34:27;101569.47;;;5.00;100.00
24858;BME280;12935;50.782;6.074;2023-02-10T09:36:55;101558.72;;;5.08;100.00
24858;BME280;12935;50.782;6.074;2023-02-10T09:39:22;101564.16;;;4.94;100.00
24858;BME280;12935;50.782;6.074;2023-02-10T09:42:08;101571.84;;;5.15;100.00
24858;BME280;12935;50.782;6.074;2023-02-10T09:44:36;101571.25;;;5.18;100.00
24858;BME280;12935;50.782;6.074;2023-02-10T09:55:14;101570.88;;;5.55;100.00
24858;BME280;12935;50.782;6.074;2023-02-10T09:57:45;101578.75;;;5.66;100.00
24858;BME280;12935;50.782;6.074;2023-02-10T10:00:27;101571.69;;;5.87;100.00
24858;BME280;12935;50.782;6.074;2023-02-10T10:02:55;101588.75;;;5.79;100.00
24858;BME280;12935;50.782;6.074;2023-02-10T10:07:53;101599.94;;;5.86;100.00
24858;BME280;12935;50.782;6.074;2023-02-10T10:10:27;101602.38;;;5.65;100.00
24858;BME280;12935;50.782;6.074;2023-02-10T10:12:55;101604.13;;;5.70;100.00
24858;BME280;12935;50.782;6.074;2023-02-10T10:15:23;101598.59;;;5.75;100.00
24858;BME280;12935;50.782;6.074;2023-02-10T10:18:01;101594.81;;;5.84;100.00
24858;BME280;12935;50.782;6.074;2023-02-10T10:20:41;101599.44;;;6.06;100.00
24858;BME280;12935;50.782;6.074;2023-02-10T10:23:34;101602.03;;;6.11;100.00
24858;BME280;12935;50.782;6.074;2023-02-10T10:29:01;101607.78;;;6.49;100.00
24858;BME280;12935;50.782;6.074;2023-02-10T10:31:37;101584.06;;;6.32;100.00
24858;BME280;12935;50.782;6.074;2023-02-10T10:34:29;101599.91;;;6.39;100.00
24858;BME280;12935;50.782;6.074;2023-02-10T10:36:56;101601.59;;;6.57;100.00
24858;BME280;12935;50.782;6.074;2023-02-10T10:39:39;101603.50;;;6.65;100.00
24858;BME280;12935;50.782;6.074;2023-02-10T10:42:41;101614.91;;;6.76;100.00
24858;BME280;12935;50.782;6.074;2023-02-10T10:45:21;101597.19;;;6.96;100.00
24858;BME280;12935;50.782;6.074;2023-02-10T10:47:59;101602.16;;;7.11;100.00
24858;BME280;12935;50.782;6.074;2023-02-10T10:50:26;101592.56;;;7.05;100.00
24858;BME280;12935;50.782;6.074;2023-02-10T10:52:54;101601.19;;;6.98;100.00
24858;BME280;12935;50.782;6.074;2023-02-10T10:55:41;101601.03;;;7.12;100.00
24858;BME280;12935;50.782;6.074;2023-02-10T10:58:28;101605.22;;;7.18;100.00
24858;BME280;12935;50.782;6.074;2023-02-10T11:00:58;101604.06;;;7.11;100.00
24858;BME280;12935;50.782;6.074;2023-02-10T11:03:23;101594.47;;;6.96;100.00
24858;BME280;12935;50.782;6.074;2023-02-10T11:08:39;101599.22;;;7.94;100.00
24858;BME280;12935;50.782;6.074;2023-02-10T11:11:09;101604.94;;;8.09;97.81
24858;BME280;12935;50.782;6.074;2023-02-10T11:13:37;101597.56;;;8.10;95.69
24858;BME280;12935;50.782;6.074;2023-02-10T11:16:09;101602.38;;;8.51;93.62
24858;BME280;12935;50.782;6.074;2023-02-10T11:18:35;101592.38;;;8.34;89.21
24858;BME280;12935;50.782;6.074;2023-02-10T11:21:04;101588.06;;;8.33;87.56
24858;BME280;12935;50.782;6.074;2023-02-10T11:23:30;101582.75;;;8.37;87.96
24858;BME280;12935;50.782;6.074;2023-02-10T11:26:03;101570.63;;;8.85;87.98
24858;BME280;12935;50.782;6.074;2023-02-10T11:28:31;101576.47;;;9.37;85.33
24858;BME280;12935;50.782;6.074;2023-02-10T11:31:02;101578.63;;;9.10;81.51
24858;BME280;12935;50.782;6.074;2023-02-10T11:33:31;101571.53;;;9.51;81.84
24858;BME280;12935;50.782;6.074;2023-02-10T11:36:08;101569.91;;;9.38;79.44
24858;BME280;12935;50.782;6.074;2023-02-10T11:38:38;101574.28;;;9.30;80.26
24858;BME280;12935;50.782;6.074;2023-02-10T11:41:09;101576.84;;;9.80;81.21
24858;BME280;12935;50.782;6.074;2023-02-10T11:43:46;101568.66;;;9.80;77.96
24858;BME280;12935;50.782;6.074;2023-02-10T11:46:21;101553.69;;;10.11;78.18
24858;BME280;12935;50.782;6.074;2023-02-10T11:48:55;101567.34;;;9.54;77.46
24858;BME280;12935;50.782;6.074;2023-02-10T11:51:20;101557.84;;;9.39;79.05
24858;BME280;12935;50.782;6.074;2023-02-10T11:53:46;101551.78;;;9.33;80.70
24858;BME280;12935;50.782;6.074;2023-02-10T12:05:38;101559.56;;;10.46;73.84
24858;BME280;12935;50.782;6.074;2023-02-10T12:08:13;101552.28;;;10.50;73.87
24858;BME280;12935;50.782;6.074;2023-02-10T12:13:42;101547.16;;;10.36;71.59
24858;BME280;12935;50.782;6.074;2023-02-10T12:18:58;101548.84;;;10.29;71.05
24858;BME280;12935;50.782;6.074;2023-02-10T12:21:43;101542.25;;;10.54;68.20
24858;BME280;12935;50.782;6.074;2023-02-10T12:24:18;101542.59;;;10.28;67.64
24858;BME280;12935;50.782;6.074;2023-02-10T12:26:50;101550.00;;;10.52;66.13
24858;BME280;12935;50.782;6.074;2023-02-10T12:29:37;101541.28;;;10.74;66.25
24858;BME280;12935;50.782;6.074;2023-02-10T12:32:42;101546.22;;;10.69;67.10
24858;BME280;12935;50.782;6.074;2023-02-10T12:49:04;101527.25;;;11.72;60.69
24858;BME280;12935;50.782;6.074;2023-02-10T12:51:48;101514.00;;;11.30;60.25
24858;BME280;12935;50.782;6.074;2023-02-10T12:54:34;101516.53;;;11.67;59.37
24858;BME280;12935;50.782;6.074;2023-02-10T12:57:05;101516.56;;;10.83;60.81
24858;BME280;12935;50.782;6.074;2023-02-10T12:59:58;101502.03;;;10.67;63.04
24858;BME280;12935;50.782;6.074;2023-02-10T13:02:31;101495.91;;;10.33;64.39
24858;BME280;12935;50.782;6.074;2023-02-10T13:05:04;101495.13;;;10.21;65.75
24858;BME280;12935;50.782;6.074;2023-02-10T13:10:22;101486.06;;;9.59;67.98
24858;BME280;12935;50.782;6.074;2023-02-10T13:12:52;101493.00;;;9.81;69.83
24858;BME280;12935;50.782;6.074;2023-02-10T13:15:28;101493.41;;;9.46;68.63
24858;BME280;12935;50.782;6.074;2023-02-10T13:17:54;101491.00;;;9.45;69.36
24858;BME280;12935;50.782;6.074;2023-02-10T13:20:42;101489.84;;;9.91;67.90
24858;BME280;12935;50.782;6.074;2023-02-10T13:23:19;101477.47;;;9.36;70.73
24858;BME280;12935;50.782;6.074;2023-02-10T13:29:06;101477.16;;;9.50;74.43
24858;BME280;12935;50.782;6.074;2023-02-10T13:31:56;101471.50;;;9.22;73.61
24858;BME280;12935;50.782;6.074;2023-02-10T13:34:32;101478.28;;;9.16;75.14
24858;BME280;12935;50.782;6.074;2023-02-10T13:39:37;101474.44;;;8.63;78.26
24858;BME280;12935;50.782;6.074;2023-02-10T13:42:09;101479.13;;;8.96;78.48
24858;BME280;12935;50.782;6.074;2023-02-10T13:44:39;101469.69;;;8.93;79.22
24858;BME280;12935;50.782;6.074;2023-02-10T13:47:36;101469.22;;;8.70;80.46
24858;BME280;12935;50.782;6.074;2023-02-10T13:58:01;101460.31;;;8.82;81.74
24858;BME280;12935;50.782;6.074;2023-02-10T14:00:51;101455.31;;;9.05;79.70
24858;BME280;12935;50.782;6.074;2023-02-10T14:03:19;101451.34;;;8.82;81.55
24858;BME280;12935;50.782;6.074;2023-02-10T14:08:40;101462.59;;;8.59;81.77
24858;BME280;12935;50.782;6.074;2023-02-10T14:13:43;101463.44;;;8.72;78.56
24858;BME280;12935;50.782;6.074;2023-02-10T14:18:43;101455.94;;;8.69;79.89
24858;BME280;12935;50.782;6.074;2023-02-10T14:21:13;101459.97;;;8.42;80.97
24858;BME280;12935;50.782;6.074;2023-02-10T14:23:57;101466.31;;;8.34;81.54
24858;BME280;12935;50.782;6.074;2023-02-10T14:26:29;101468.09;;;8.21;81.99
24858;BME280;12935;50.782;6.074;2023-02-10T14:28:58;101457.28;;;8.04;83.33
24858;BME280;12935;50.782;6.074;2023-02-10T14:31:33;101457.75;;;8.06;83.83
24858;BME280;12935;50.782;6.074;2023-02-10T14:34:04;101469.22;;;8.20;84.02